Timbo, AR (72657)

8:29 AM CDT on August 01, 2014 (GMT -0500)
Alco (KARLESLI2) Elev 1729 ft | 35.88 °N, 92.38 °W | Change Station

Current weather conditions updated 6 minutes ago

Overcast
Overcast
64.4 °F
Feels Like 64.4 °F
N
0.0
Wind Variable Wind from NW
Gusts 0.0 mph

Today is forecast to be Much Warmer than yesterday. Thunderstorms developing in the afternoon.

Today
High -- | Low -- °F
--% Chance of Precip.
Yesterday
High -- | Low -- °F
Precip. -- in
6:16 AM 8:13 PM
Waxing Crescent, 26% visible
Pressure 30.10 in
Visibility 7.0 miles
Clouds Overcast 4700 ft
Dew Point 63 °F
Humidity 95%
Rainfall 0.00 in
Snow Depth Not available.
UV 1 out of 12
Pollen 4.00 out of 12
Air Quality Not available.
Flu Activity Not available.
METAR KCCA 011315Z AUTO 00000KT 7SM OVC047 20/19 A3010 RMK AO2

More Conditions Fewer Conditions

Pressure 30.10 in
Visibility 7.0 miles
Clouds Overcast 4700 ft
Dew Point 63 °F
Humidity 95%
Rainfall 0.00 in
Snow Depth Not available.
UV 1 out of 12
Pollen 4.00 out of 12
Air Quality Not available.
Flu Activity Not available.
METAR KCCA 011315Z AUTO 00000KT 7SM OVC047 20/19 A3010 RMK AO2

More Conditions Fewer Conditions

10-Day Weather Forecast

Almanac

Astronomy

Aug. 01, 2014 Rise Set
Actual Time 6:16 AM CDT 8:13 PM CDT
Civil Twilight 5:48 AM CDT 8:41 PM CDT
Nautical Twilight 5:14 AM CDT 9:15 PM CDT
Astronomical Twilight 4:37 AM CDT 9:52 PM CDT
Moon 11:28 AM CDT 11:11 PM CDT
Length of Visible Light 14h 53m
Length of Day
13h 56m
Tomorrow will be 1m 43s shorter.
Waxing Crescent, 26% of the Moon is Illuminated
Today
Waxing Crescent
Aug 3
First Quarter
Aug 10
Full
Aug 17
Last Quarter
Aug 25
New

Today's Extremes

State Highs State Lows

Community

WunderPhotos

Upload Photos

1,739,556 photos uploaded!

Nearby

Snow Depth

Station Depth Elevation
No new snow has been reported.

Earthquake Activity

City Distance Mag. Time & Date
No recent earthquake activity has been reported nearby.
Minimum magnitude displayed is 2.5.

Coastal Water Temperatures

Place Temperature
No Stations Reporting

Nearby Weather Stations

Station Location Temp. Dew Point Humidity Wind Precip. Elev Updated Type
Alco, Leslie, AR 64.4 °F 63 °F 95% NW  at  0.0 mph 0.00 in / hr 1729 ft 8:22 AM CDT Normal
Flatwoods, Mountain View, AR 65.5 °F 65 °F 99% North  at  0.0 mph 0.00 in / hr 750 ft 8:02 AM CDT Normal
Meadowcreek, Fox, AR 66.5 °F 66 °F 99% SSW  at  0.0 mph 0.00 in / hr 640 ft 8:18 AM CDT Normal
Twin Creek, Melbourne, AR 68.3 °F 67 °F 95% South  at  0.0 mph 0.00 in / hr 451 ft 8:28 AM CDT Rapid Fire
Calico Rock, AR 67.6 °F 66 °F 94% North  at  0.0 mph 0.00 in / hr 666 ft 8:29 AM CDT Rapid Fire
Shepherd of the Ozarks, Harriet, AR 66.2 °F 8 °F 10% SW  at  0.0 mph 0.00 in / hr 955 ft 8:29 AM CDT Rapid Fire

Show More Stations Show Fewer Stations